sensor_id;sensor_type;location;lat;lon;timestamp;pressure;altitude;pressure_sealevel;temperature;humidity
42001;BME280;27689;48.390;10.856;2023-07-13T00:01:02;96098.97;;;18.60;100.00
42001;BME280;27689;48.390;10.856;2023-07-13T00:03:47;96112.25;;;18.60;100.00
42001;BME280;27689;48.390;10.856;2023-07-13T00:06:30;96109.19;;;18.63;100.00
42001;BME280;27689;48.390;10.856;2023-07-13T00:09:17;96094.72;;;18.66;100.00
42001;BME280;27689;48.390;10.856;2023-07-13T00:12:01;96097.59;;;18.71;100.00
42001;BME280;27689;48.390;10.856;2023-07-13T00:14:46;96105.78;;;18.70;100.00
42001;BME280;27689;48.390;10.856;2023-07-13T00:17:30;96102.06;;;18.71;100.00
42001;BME280;27689;48.390;10.856;2023-07-13T00:20:14;96098.19;;;18.66;100.00
42001;BME280;27689;48.390;10.856;2023-07-13T00:22:58;96093.72;;;18.67;100.00
42001;BME280;27689;48.390;10.856;2023-07-13T00:25:41;96083.28;;;18.65;100.00
42001;BME280;27689;48.390;10.856;2023-07-13T00:28:25;96092.69;;;18.68;100.00
42001;BME280;27689;48.390;10.856;2023-07-13T00:31:11;96091.88;;;18.67;100.00
42001;BME280;27689;48.390;10.856;2023-07-13T00:33:54;96089.63;;;18.71;100.00
42001;BME280;27689;48.390;10.856;2023-07-13T00:36:38;96094.94;;;18.71;100.00
42001;BME280;27689;48.390;10.856;2023-07-13T00:39:23;96095.16;;;18.70;100.00
42001;BME280;27689;48.390;10.856;2023-07-13T00:42:07;96091.88;;;18.67;100.00
42001;BME280;27689;48.390;10.856;2023-07-13T00:47:57;96092.72;;;18.75;100.00
42001;BME280;27689;48.390;10.856;2023-07-13T00:50:42;96101.88;;;18.72;100.00
42001;BME280;27689;48.390;10.856;2023-07-13T00:53:29;96099.03;;;18.74;100.00
42001;BME280;27689;48.390;10.856;2023-07-13T00:56:15;96098.66;;;18.77;100.00
42001;BME280;27689;48.390;10.856;2023-07-13T00:59:02;96094.97;;;18.78;100.00
42001;BME280;27689;48.390;10.856;2023-07-13T01:01:47;96095.97;;;18.77;100.00
42001;BME280;27689;48.390;10.856;2023-07-13T01:04:31;96092.91;;;18.73;100.00
42001;BME280;27689;48.390;10.856;2023-07-13T01:07:15;96083.09;;;18.74;100.00
42001;BME280;27689;48.390;10.856;2023-07-13T01:09:59;96070.06;;;18.79;100.00
42001;BME280;27689;48.390;10.856;2023-07-13T01:12:44;96069.06;;;18.80;100.00
42001;BME280;27689;48.390;10.856;2023-07-13T01:15:42;96066.59;;;18.78;100.00
42001;BME280;27689;48.390;10.856;2023-07-13T01:18:27;96063.69;;;18.73;100.00
42001;BME280;27689;48.390;10.856;2023-07-13T01:21:11;96084.53;;;18.76;100.00
42001;BME280;27689;48.390;10.856;2023-07-13T01:23:55;96079.63;;;18.73;100.00
42001;BME280;27689;48.390;10.856;2023-07-13T01:26:39;96083.53;;;18.77;100.00
42001;BME280;27689;48.390;10.856;2023-07-13T01:29:24;96081.91;;;18.76;100.00
42001;BME280;27689;48.390;10.856;2023-07-13T01:32:09;96064.53;;;18.74;100.00
42001;BME280;27689;48.390;10.856;2023-07-13T01:34:54;96061.06;;;18.73;100.00
42001;BME280;27689;48.390;10.856;2023-07-13T01:37:38;96050.25;;;18.75;100.00
42001;BME280;27689;48.390;10.856;2023-07-13T01:40:26;96045.34;;;18.78;100.00
42001;BME280;27689;48.390;10.856;2023-07-13T01:43:09;96052.94;;;18.81;100.00
42001;BME280;27689;48.390;10.856;2023-07-13T01:45:54;96069.44;;;18.77;100.00
42001;BME280;27689;48.390;10.856;2023-07-13T01:48:38;96067.56;;;18.71;100.00
42001;BME280;27689;48.390;10.856;2023-07-13T01:51:22;96080.63;;;18.65;100.00
42001;BME280;27689;48.390;10.856;2023-07-13T01:54:06;96086.38;;;18.69;100.00
42001;BME280;27689;48.390;10.856;2023-07-13T01:56:50;96082.09;;;18.68;100.00
42001;BME280;27689;48.390;10.856;2023-07-13T01:59:37;96082.03;;;18.61;100.00
42001;BME280;27689;48.390;10.856;2023-07-13T02:02:21;96079.63;;;18.66;100.00
42001;BME280;27689;48.390;10.856;2023-07-13T02:05:06;96083.06;;;18.60;100.00
42001;BME280;27689;48.390;10.856;2023-07-13T02:07:53;96079.19;;;18.63;100.00
42001;BME280;27689;48.390;10.856;2023-07-13T02:10:37;96076.72;;;18.61;100.00
42001;BME280;27689;48.390;10.856;2023-07-13T02:13:21;96071.16;;;18.56;100.00
42001;BME280;27689;48.390;10.856;2023-07-13T02:16:05;96081.03;;;18.62;100.00
42001;BME280;27689;48.390;10.856;2023-07-13T02:18:50;96085.72;;;18.60;100.00
42001;BME280;27689;48.390;10.856;2023-07-13T02:21:35;96092.59;;;18.55;100.00
42001;BME280;27689;48.390;10.856;2023-07-13T02:24:22;96090.75;;;18.55;100.00
42001;BME280;27689;48.390;10.856;2023-07-13T02:27:09;96101.16;;;18.57;100.00
42001;BME280;27689;48.390;10.856;2023-07-13T02:29:56;96099.50;;;18.49;100.00
42001;BME280;27689;48.390;10.856;2023-07-13T02:32:40;96109.31;;;18.55;100.00
42001;BME280;27689;48.390;10.856;2023-07-13T02:35:23;96103.81;;;18.57;100.00
42001;BME280;27689;48.390;10.856;2023-07-13T02:38:07;96107.28;;;18.57;100.00
42001;BME280;27689;48.390;10.856;2023-07-13T02:40:52;96113.59;;;18.50;100.00
42001;BME280;27689;48.390;10.856;2023-07-13T02:43:41;96109.25;;;18.42;100.00
42001;BME280;27689;48.390;10.856;2023-07-13T02:46:25;96120.28;;;18.46;100.00
42001;BME280;27689;48.390;10.856;2023-07-13T02:49:09;96110.88;;;18.37;100.00
42001;BME280;27689;48.390;10.856;2023-07-13T02:51:53;96110.88;;;18.37;100.00
42001;BME280;27689;48.390;10.856;2023-07-13T02:54:46;96108.34;;;18.28;100.00
42001;BME280;27689;48.390;10.856;2023-07-13T02:57:31;96112.44;;;18.31;100.00
42001;BME280;27689;48.390;10.856;2023-07-13T03:00:21;96109.16;;;18.29;100.00
42001;BME280;27689;48.390;10.856;2023-07-13T03:03:13;96111.81;;;18.29;100.00
42001;BME280;27689;48.390;10.856;2023-07-13T03:06:00;96129.63;;;18.35;100.00
42001;BME280;27689;48.390;10.856;2023-07-13T03:08:44;96113.63;;;18.22;100.00
42001;BME280;27689;48.390;10.856;2023-07-13T03:11:28;96111.16;;;18.20;100.00
42001;BME280;27689;48.390;10.856;2023-07-13T03:14:12;96103.31;;;18.06;100.00
42001;BME280;27689;48.390;10.856;2023-07-13T03:16:59;96098.03;;;18.06;100.00
42001;BME280;27689;48.390;10.856;2023-07-13T03:19:45;96110.91;;;18.09;100.00
42001;BME280;27689;48.390;10.856;2023-07-13T03:22:38;96114.31;;;18.03;100.00
42001;BME280;27689;48.390;10.856;2023-07-13T03:25:22;96122.06;;;18.04;100.00
42001;BME280;27689;48.390;10.856;2023-07-13T03:28:09;96113.44;;;17.95;100.00
42001;BME280;27689;48.390;10.856;2023-07-13T03:31:04;96120.63;;;18.02;100.00
42001;BME280;27689;48.390;10.856;2023-07-13T03:33:48;96111.81;;;17.94;100.00
42001;BME280;27689;48.390;10.856;2023-07-13T03:36:33;96127.31;;;17.97;100.00
42001;BME280;27689;48.390;10.856;2023-07-13T03:39:17;96134.44;;;17.97;100.00
42001;BME280;27689;48.390;10.856;2023-07-13T03:42:01;96123.34;;;17.87;100.00
42001;BME280;27689;48.390;10.856;2023-07-13T03:44:45;96136.03;;;17.91;100.00
42001;BME280;27689;48.390;10.856;2023-07-13T03:47:34;96136.41;;;17.88;100.00
42001;BME280;27689;48.390;10.856;2023-07-13T03:50:18;96138.06;;;17.89;100.00
42001;BME280;27689;48.390;10.856;2023-07-13T03:53:02;96123.31;;;17.80;100.00
42001;BME280;27689;48.390;10.856;2023-07-13T03:55:49;96130.44;;;17.80;100.00
42001;BME280;27689;48.390;10.856;2023-07-13T03:58:35;96136.94;;;17.77;100.00
42001;BME280;27689;48.390;10.856;2023-07-13T04:01:20;96148.19;;;17.79;100.00
42001;BME280;27689;48.390;10.856;2023-07-13T04:04:05;96126.09;;;17.72;100.00
42001;BME280;27689;48.390;10.856;2023-07-13T04:06:49;96149.56;;;17.75;100.00
42001;BME280;27689;48.390;10.856;2023-07-13T04:09:33;96176.56;;;17.85;100.00
42001;BME280;27689;48.390;10.856;2023-07-13T04:12:16;96182.88;;;17.84;100.00
42001;BME280;27689;48.390;10.856;2023-07-13T04:15:00;96184.88;;;17.82;100.00
42001;BME280;27689;48.390;10.856;2023-07-13T04:17:44;96176.50;;;17.79;100.00
42001;BME280;27689;48.390;10.856;2023-07-13T04:20:28;96181.41;;;17.82;100.00
42001;BME280;27689;48.390;10.856;2023-07-13T04:23:13;96178.16;;;17.80;100.00
42001;BME280;27689;48.390;10.856;2023-07-13T04:25:57;96185.28;;;17.79;100.00
42001;BME280;27689;48.390;10.856;2023-07-13T04:28:41;96188.03;;;17.71;100.00
42001;BME280;27689;48.390;10.856;2023-07-13T04:31:25;96195.81;;;17.73;100.00
42001;BME280;27689;48.390;10.856;2023-07-13T04:34:09;96200.03;;;17.67;100.00
42001;BME280;27689;48.390;10.856;2023-07-13T04:36:53;96208.97;;;17.66;100.00
42001;BME280;27689;48.390;10.856;2023-07-13T04:39:37;96210.63;;;17.67;100.00
42001;BME280;27689;48.390;10.856;2023-07-13T04:42:22;96204.13;;;17.70;100.00
42001;BME280;27689;48.390;10.856;2023-07-13T04:45:07;96210.00;;;17.65;100.00
42001;BME280;27689;48.390;10.856;2023-07-13T04:47:51;96210.34;;;17.62;100.00
42001;BME280;27689;48.390;10.856;2023-07-13T04:50:38;96208.00;;;17.52;100.00
42001;BME280;27689;48.390;10.856;2023-07-13T04:53:22;96213.75;;;17.56;100.00
42001;BME280;27689;48.390;10.856;2023-07-13T04:56:06;96212.00;;;17.63;100.00
42001;BME280;27689;48.390;10.856;2023-07-13T04:58:50;96210.28;;;17.55;100.00
42001;BME280;27689;48.390;10.856;2023-07-13T05:01:34;96215.75;;;17.54;100.00
42001;BME280;27689;48.390;10.856;2023-07-13T05:04:18;96227.19;;;17.54;100.00
42001;BME280;27689;48.390;10.856;2023-07-13T05:07:02;96227.19;;;17.54;100.00
42001;BME280;27689;48.390;10.856;2023-07-13T05:09:46;96228.38;;;17.52;100.00
42001;BME280;27689;48.390;10.856;2023-07-13T05:12:31;96225.72;;;17.52;100.00
42001;BME280;27689;48.390;10.856;2023-07-13T05:15:16;96236.94;;;17.54;100.00
42001;BME280;27689;48.390;10.856;2023-07-13T05:18:04;96235.94;;;17.55;100.00
42001;BME280;27689;48.390;10.856;2023-07-13T05:20:56;96233.28;;;17.55;100.00
42001;BME280;27689;48.390;10.856;2023-07-13T05:23:41;96224.59;;;17.61;100.00
42001;BME280;27689;48.390;10.856;2023-07-13T05:26:28;96227.44;;;17.59;100.00
42001;BME280;27689;48.390;10.856;2023-07-13T05:29:12;96236.50;;;17.65;100.00
42001;BME280;27689;48.390;10.856;2023-07-13T05:31:56;96241.22;;;17.70;100.00
42001;BME280;27689;48.390;10.856;2023-07-13T05:34:40;96230.00;;;17.68;100.00
42001;BME280;27689;48.390;10.856;2023-07-13T05:37:24;96226.16;;;17.70;100.00
42001;BME280;27689;48.390;10.856;2023-07-13T05:40:08;96224.78;;;17.74;100.00
42001;BME280;27689;48.390;10.856;2023-07-13T05:42:52;96217.28;;;17.78;100.00
42001;BME280;27689;48.390;10.856;2023-07-13T05:45:36;96226.69;;;17.80;100.00
42001;BME280;27689;48.390;10.856;2023-07-13T05:48:21;96234.41;;;17.82;100.00
42001;BME280;27689;48.390;10.856;2023-07-13T05:51:05;96229.56;;;17.85;100.00
42001;BME280;27689;48.390;10.856;2023-07-13T05:53:48;96243.81;;;17.84;100.00
42001;BME280;27689;48.390;10.856;2023-07-13T05:56:32;96250.97;;;17.84;100.00
42001;BME280;27689;48.390;10.856;2023-07-13T05:59:17;96249.13;;;17.84;100.00
42001;BME280;27689;48.390;10.856;2023-07-13T06:02:02;96246.78;;;17.75;100.00
42001;BME280;27689;48.390;10.856;2023-07-13T06:04:46;96250.81;;;17.71;100.00
42001;BME280;27689;48.390;10.856;2023-07-13T06:07:30;96252.59;;;17.64;100.00
42001;BME280;27689;48.390;10.856;2023-07-13T06:10:14;96253.22;;;17.66;100.00
42001;BME280;27689;48.390;10.856;2023-07-13T06:12:58;96262.44;;;17.70;100.00
42001;BME280;27689;48.390;10.856;2023-07-13T06:15:42;96255.19;;;17.78;100.00
42001;BME280;27689;48.390;10.856;2023-07-13T06:18:26;96260.88;;;17.75;100.00
42001;BME280;27689;48.390;10.856;2023-07-13T06:21:12;96257.59;;;17.73;100.00
42001;BME280;27689;48.390;10.856;2023-07-13T06:23:56;96269.38;;;17.71;100.00
42001;BME280;27689;48.390;10.856;2023-07-13T06:26:40;96269.19;;;17.72;100.00
42001;BME280;27689;48.390;10.856;2023-07-13T06:29:24;96277.09;;;17.66;100.00
42001;BME280;27689;48.390;10.856;2023-07-13T06:32:08;96282.16;;;17.67;100.00
42001;BME280;27689;48.390;10.856;2023-07-13T06:34:52;96289.75;;;17.70;100.00
42001;BME280;27689;48.390;10.856;2023-07-13T06:37:36;96292.16;;;17.65;100.00
42001;BME280;27689;48.390;10.856;2023-07-13T06:40:20;96296.63;;;17.65;100.00
42001;BME280;27689;48.390;10.856;2023-07-13T06:43:04;96290.22;;;17.59;100.00
42001;BME280;27689;48.390;10.856;2023-07-13T06:45:48;96292.84;;;17.59;100.00
42001;BME280;27689;48.390;10.856;2023-07-13T06:48:33;96294.69;;;17.58;100.00
42001;BME280;27689;48.390;10.856;2023-07-13T06:51:17;96298.16;;;17.59;100.00
42001;BME280;27689;48.390;10.856;2023-07-13T06:54:01;96302.44;;;17.60;100.00
42001;BME280;27689;48.390;10.856;2023-07-13T06:56:45;96297.69;;;17.55;100.00
42001;BME280;27689;48.390;10.856;2023-07-13T06:59:29;96303.91;;;17.62;100.00
42001;BME280;27689;48.390;10.856;2023-07-13T07:02:13;96305.19;;;17.67;100.00
42001;BME280;27689;48.390;10.856;2023-07-13T07:04:56;96309.31;;;17.69;100.00
42001;BME280;27689;48.390;10.856;2023-07-13T07:07:40;96312.69;;;17.78;100.00
42001;BME280;27689;48.390;10.856;2023-07-13T07:10:25;96308.44;;;17.83;100.00
42001;BME280;27689;48.390;10.856;2023-07-13T07:13:09;96317.84;;;17.86;100.00
42001;BME280;27689;48.390;10.856;2023-07-13T07:15:53;96312.47;;;17.94;100.00
42001;BME280;27689;48.390;10.856;2023-07-13T07:18:38;96322.75;;;18.04;100.00
42001;BME280;27689;48.390;10.856;2023-07-13T07:21:22;96323.13;;;18.01;100.00
42001;BME280;27689;48.390;10.856;2023-07-13T07:24:06;96319.97;;;18.12;100.00
42001;BME280;27689;48.390;10.856;2023-07-13T07:26:51;96322.13;;;18.23;100.00
42001;BME280;27689;48.390;10.856;2023-07-13T07:29:35;96323.81;;;18.30;100.00
42001;BME280;27689;48.390;10.856;2023-07-13T07:32:19;96330.84;;;18.38;100.00
42001;BME280;27689;48.390;10.856;2023-07-13T07:35:04;96323.75;;;18.45;100.00
42001;BME280;27689;48.390;10.856;2023-07-13T07:37:48;96335.78;;;18.62;98.88
42001;BME280;27689;48.390;10.856;2023-07-13T07:40:36;96339.31;;;18.70;100.00
42001;BME280;27689;48.390;10.856;2023-07-13T07:43:21;96341.44;;;18.81;99.02
42001;BME280;27689;48.390;10.856;2023-07-13T07:46:05;96344.09;;;18.81;97.70
42001;BME280;27689;48.390;10.856;2023-07-13T07:48:49;96351.34;;;18.93;95.42
42001;BME280;27689;48.390;10.856;2023-07-13T07:51:33;96342.91;;;18.83;90.63
42001;BME280;27689;48.390;10.856;2023-07-13T07:54:17;96348.50;;;18.95;95.05
42001;BME280;27689;48.390;10.856;2023-07-13T07:57:01;96342.41;;;19.01;88.89
42001;BME280;27689;48.390;10.856;2023-07-13T07:59:45;96351.63;;;19.05;85.19
42001;BME280;27689;48.390;10.856;2023-07-13T08:02:29;96340.75;;;19.00;84.96
42001;BME280;27689;48.390;10.856;2023-07-13T08:05:12;96350.56;;;18.99;85.61
42001;BME280;27689;48.390;10.856;2023-07-13T08:07:56;96348.97;;;19.05;85.66
42001;BME280;27689;48.390;10.856;2023-07-13T08:10:40;96353.47;;;19.05;87.16
42001;BME280;27689;48.390;10.856;2023-07-13T08:13:24;96346.13;;;19.07;88.90
42001;BME280;27689;48.390;10.856;2023-07-13T08:16:08;96347.59;;;19.09;87.51
42001;BME280;27689;48.390;10.856;2023-07-13T08:18:52;96353.56;;;19.18;85.43
42001;BME280;27689;48.390;10.856;2023-07-13T08:21:36;96352.72;;;19.17;85.01
42001;BME280;27689;48.390;10.856;2023-07-13T08:24:23;96345.84;;;19.29;82.62
42001;BME280;27689;48.390;10.856;2023-07-13T08:27:07;96356.47;;;19.29;80.90
42001;BME280;27689;48.390;10.856;2023-07-13T08:29:51;96359.56;;;19.33;77.37
42001;BME280;27689;48.390;10.856;2023-07-13T08:32:36;96353.44;;;19.32;80.93
42001;BME280;27689;48.390;10.856;2023-07-13T08:35:20;96363.31;;;19.45;83.96
42001;BME280;27689;48.390;10.856;2023-07-13T08:38:04;96363.03;;;19.61;80.61
42001;BME280;27689;48.390;10.856;2023-07-13T08:40:52;96364.91;;;19.67;77.25
42001;BME280;27689;48.390;10.856;2023-07-13T08:43:37;96363.28;;;19.66;78.10
42001;BME280;27689;48.390;10.856;2023-07-13T08:46:35;96365.16;;;19.79;77.93
42001;BME280;27689;48.390;10.856;2023-07-13T08:49:21;96375.16;;;19.70;76.19
42001;BME280;27689;48.390;10.856;2023-07-13T08:52:15;96373.72;;;19.75;75.98
42001;BME280;27689;48.390;10.856;2023-07-13T08:55:09;96374.16;;;19.78;76.49
42001;BME280;27689;48.390;10.856;2023-07-13T08:58:09;96365.41;;;19.84;77.37
42001;BME280;27689;48.390;10.856;2023-07-13T09:01:17;96377.06;;;19.90;74.91
42001;BME280;27689;48.390;10.856;2023-07-13T09:04:19;96366.72;;;20.01;72.14
42001;BME280;27689;48.390;10.856;2023-07-13T09:07:29;96374.69;;;20.01;76.95
42001;BME280;27689;48.390;10.856;2023-07-13T09:10:19;96382.25;;;20.04;76.16
42001;BME280;27689;48.390;10.856;2023-07-13T09:13:28;96377.00;;;20.18;71.61
42001;BME280;27689;48.390;10.856;2023-07-13T09:16:15;96380.09;;;20.28;70.63
42001;BME280;27689;48.390;10.856;2023-07-13T09:19:05;96381.91;;;20.34;66.69
42001;BME280;27689;48.390;10.856;2023-07-13T09:21:52;96377.22;;;20.29;67.14
42001;BME280;27689;48.390;10.856;2023-07-13T09:27:39;96384.66;;;20.40;66.64
42001;BME280;27689;48.390;10.856;2023-07-13T09:30:37;96388.34;;;20.46;64.27
42001;BME280;27689;48.390;10.856;2023-07-13T09:33:22;96389.72;;;20.35;66.13
42001;BME280;27689;48.390;10.856;2023-07-13T09:36:21;96382.34;;;20.31;65.03
42001;BME280;27689;48.390;10.856;2023-07-13T09:42:15;96389.78;;;20.42;66.08
42001;BME280;27689;48.390;10.856;2023-07-13T09:45:01;96387.53;;;20.46;66.08
42001;BME280;27689;48.390;10.856;2023-07-13T09:48:11;96384.88;;;20.52;66.30
42001;BME280;27689;48.390;10.856;2023-07-13T09:50:57;96383.44;;;20.56;67.70
42001;BME280;27689;48.390;10.856;2023-07-13T09:53:50;96396.75;;;20.56;66.99
42001;BME280;27689;48.390;10.856;2023-07-13T09:56:34;96399.41;;;20.50;65.87
42001;BME280;27689;48.390;10.856;2023-07-13T09:59:22;96402.47;;;20.53;64.13
42001;BME280;27689;48.390;10.856;2023-07-13T10:02:30;96392.66;;;20.67;62.72
42001;BME280;27689;48.390;10.856;2023-07-13T10:05:16;96390.03;;;20.60;61.45
42001;BME280;27689;48.390;10.856;2023-07-13T10:07:59;96392.84;;;20.52;60.77
42001;BME280;27689;48.390;10.856;2023-07-13T10:10:44;96393.91;;;20.58;60.24
42001;BME280;27689;48.390;10.856;2023-07-13T10:13:37;96388.19;;;20.87;61.74
42001;BME280;27689;48.390;10.856;2023-07-13T10:16:29;96398.84;;;21.13;58.73
42001;BME280;27689;48.390;10.856;2023-07-13T10:19:27;96392.91;;;21.25;58.53
42001;BME280;27689;48.390;10.856;2023-07-13T10:22:37;96395.56;;;21.44;62.34
42001;BME280;27689;48.390;10.856;2023-07-13T10:25:25;96403.38;;;21.26;57.22
42001;BME280;27689;48.390;10.856;2023-07-13T10:28:39;96408.69;;;21.26;56.07
42001;BME280;27689;48.390;10.856;2023-07-13T10:31:25;96403.19;;;21.21;58.75
42001;BME280;27689;48.390;10.856;2023-07-13T10:34:10;96407.66;;;21.14;58.64
42001;BME280;27689;48.390;10.856;2023-07-13T10:36:55;96411.16;;;21.15;59.29
42001;BME280;27689;48.390;10.856;2023-07-13T10:39:40;96407.06;;;21.25;60.13
42001;BME280;27689;48.390;10.856;2023-07-13T10:42:36;96398.47;;;21.30;59.16
42001;BME280;27689;48.390;10.856;2023-07-13T10:45:22;96402.97;;;21.23;60.30
42001;BME280;27689;48.390;10.856;2023-07-13T10:48:10;96395.97;;;21.41;64.31
42001;BME280;27689;48.390;10.856;2023-07-13T10:50:57;96398.16;;;21.71;62.84
42001;BME280;27689;48.390;10.856;2023-07-13T10:53:44;96401.84;;;21.76;58.62
42001;BME280;27689;48.390;10.856;2023-07-13T10:56:29;96396.22;;;21.98;57.92
42001;BME280;27689;48.390;10.856;2023-07-13T10:59:27;96387.94;;;22.26;58.90
42001;BME280;27689;48.390;10.856;2023-07-13T11:02:27;96393.16;;;22.45;57.92
42001;BME280;27689;48.390;10.856;2023-07-13T11:05:28;96388.22;;;22.49;57.25
42001;BME280;27689;48.390;10.856;2023-07-13T11:11:00;96391.53;;;22.76;54.27
42001;BME280;27689;48.390;10.856;2023-07-13T11:16:44;96391.53;;;22.82;53.56
42001;BME280;27689;48.390;10.856;2023-07-13T11:19:38;96398.13;;;22.80;53.15
42001;BME280;27689;48.390;10.856;2023-07-13T11:22:25;96387.38;;;22.86;54.63
42001;BME280;27689;48.390;10.856;2023-07-13T11:25:27;96391.56;;;23.01;52.54
42001;BME280;27689;48.390;10.856;2023-07-13T11:36:30;96379.78;;;23.15;54.12
42001;BME280;27689;48.390;10.856;2023-07-13T11:39:35;96382.31;;;23.03;55.20
42001;BME280;27689;48.390;10.856;2023-07-13T11:42:21;96387.94;;;23.20;55.28
42001;BME280;27689;48.390;10.856;2023-07-13T11:45:35;96382.69;;;23.75;54.77
42001;BME280;27689;48.390;10.856;2023-07-13T11:48:28;96383.81;;;23.85;54.09
42001;BME280;27689;48.390;10.856;2023-07-13T11:51:21;96370.22;;;23.87;52.45
42001;BME280;27689;48.390;10.856;2023-07-13T12:00:22;96372.00;;;23.57;57.49
42001;BME280;27689;48.390;10.856;2023-07-13T12:03:06;96370.56;;;23.90;53.83
42001;BME280;27689;48.390;10.856;2023-07-13T12:05:59;96365.44;;;24.25;53.28
42001;BME280;27689;48.390;10.856;2023-07-13T12:08:44;96359.53;;;24.35;50.88
42001;BME280;27689;48.390;10.856;2023-07-13T12:11:29;96365.44;;;24.67;52.63
42001;BME280;27689;48.390;10.856;2023-07-13T12:14:18;96364.94;;;24.88;49.26
42001;BME280;27689;48.390;10.856;2023-07-13T12:17:09;96367.53;;;24.65;50.06
42001;BME280;27689;48.390;10.856;2023-07-13T12:19:55;96355.56;;;24.38;52.60
42001;BME280;27689;48.390;10.856;2023-07-13T12:22:39;96358.41;;;24.43;55.41
42001;BME280;27689;48.390;10.856;2023-07-13T12:25:24;96355.91;;;24.11;51.42
42001;BME280;27689;48.390;10.856;2023-07-13T12:28:23;96353.34;;;24.35;49.38
42001;BME280;27689;48.390;10.856;2023-07-13T12:31:22;96358.25;;;24.38;51.62
42001;BME280;27689;48.390;10.856;2023-07-13T12:34:11;96356.13;;;24.58;49.13
42001;BME280;27689;48.390;10.856;2023-07-13T12:36:59;96339.44;;;24.44;49.32
42001;BME280;27689;48.390;10.856;2023-07-13T12:39:46;96346.00;;;24.72;50.39
42001;BME280;27689;48.390;10.856;2023-07-13T12:42:32;96342.47;;;25.13;51.88
42001;BME280;27689;48.390;10.856;2023-07-13T12:48:12;96338.53;;;25.27;46.84
42001;BME280;27689;48.390;10.856;2023-07-13T12:51:00;96333.16;;;25.04;47.55
42001;BME280;27689;48.390;10.856;2023-07-13T12:53:50;96333.63;;;25.24;50.60
42001;BME280;27689;48.390;10.856;2023-07-13T12:56:38;96326.25;;;25.43;45.70
42001;BME280;27689;48.390;10.856;2023-07-13T12:59:22;96326.06;;;25.33;46.57
42001;BME280;27689;48.390;10.856;2023-07-13T13:02:22;96311.19;;;24.83;46.33
42001;BME280;27689;48.390;10.856;2023-07-13T13:05:13;96314.25;;;24.99;48.58
42001;BME280;27689;48.390;10.856;2023-07-13T13:07:58;96306.25;;;25.22;48.92
42001;BME280;27689;48.390;10.856;2023-07-13T13:10:42;96314.53;;;25.20;46.20
42001;BME280;27689;48.390;10.856;2023-07-13T13:13:25;96317.06;;;25.27;47.96
42001;BME280;27689;48.390;10.856;2023-07-13T13:19:21;96319.75;;;25.50;45.30
42001;BME280;27689;48.390;10.856;2023-07-13T13:22:07;96317.97;;;25.56;45.47
42001;BME280;27689;48.390;10.856;2023-07-13T13:24:51;96309.53;;;25.87;49.43
42001;BME280;27689;48.390;10.856;2023-07-13T13:27:35;96317.31;;;26.00;44.76
42001;BME280;27689;48.390;10.856;2023-07-13T13:30:19;96312.38;;;25.69;43.89
42001;BME280;27689;48.390;10.856;2023-07-13T13:33:05;96317.41;;;25.66;46.32
42001;BME280;27689;48.390;10.856;2023-07-13T13:35:53;96312.72;;;25.73;44.76
42001;BME280;27689;48.390;10.856;2023-07-13T13:38:37;96313.19;;;25.81;46.10
42001;BME280;27689;48.390;10.856;2023-07-13T13:41:21;96301.94;;;25.96;46.35
42001;BME280;27689;48.390;10.856;2023-07-13T13:44:09;96316.22;;;25.73;46.12
42001;BME280;27689;48.390;10.856;2023-07-13T13:46:54;96312.84;;;26.06;46.49
42001;BME280;27689;48.390;10.856;2023-07-13T13:49:39;96312.16;;;26.39;45.51
42001;BME280;27689;48.390;10.856;2023-07-13T13:52:24;96306.41;;;26.64;46.24
42001;BME280;27689;48.390;10.856;2023-07-13T13:55:17;96315.34;;;26.53;43.30
42001;BME280;27689;48.390;10.856;2023-07-13T13:58:02;96319.41;;;26.39;42.05
42001;BME280;27689;48.390;10.856;2023-07-13T14:00:47;96312.63;;;26.08;43.95
42001;BME280;27689;48.390;10.856;2023-07-13T14:03:32;96308.66;;;26.39;44.30
42001;BME280;27689;48.390;10.856;2023-07-13T14:06:17;96314.66;;;26.29;45.29
42001;BME280;27689;48.390;10.856;2023-07-13T14:09:02;96311.28;;;26.50;44.76
42001;BME280;27689;48.390;10.856;2023-07-13T14:11:48;96300.72;;;26.04;44.00
42001;BME280;27689;48.390;10.856;2023-07-13T14:14:33;96296.56;;;26.24;43.89
42001;BME280;27689;48.390;10.856;2023-07-13T14:17:20;96308.88;;;26.09;45.03
42001;BME280;27689;48.390;10.856;2023-07-13T14:20:11;96308.88;;;26.09;43.29
42001;BME280;27689;48.390;10.856;2023-07-13T14:22:55;96305.31;;;25.91;44.20
42001;BME280;27689;48.390;10.856;2023-07-13T14:25:39;96305.66;;;25.95;44.71
42001;BME280;27689;48.390;10.856;2023-07-13T14:28:25;96311.84;;;25.95;42.71
42001;BME280;27689;48.390;10.856;2023-07-13T14:31:12;96312.59;;;25.56;44.56
42001;BME280;27689;48.390;10.856;2023-07-13T14:33:56;96312.63;;;25.44;45.72
42001;BME280;27689;48.390;10.856;2023-07-13T14:36:43;96314.03;;;25.35;44.43
42001;BME280;27689;48.390;10.856;2023-07-13T14:39:29;96302.72;;;24.98;44.69
42001;BME280;27689;48.390;10.856;2023-07-13T14:42:12;96301.22;;;25.02;44.74
42001;BME280;27689;48.390;10.856;2023-07-13T14:44:56;96302.72;;;24.98;43.17
42001;BME280;27689;48.390;10.856;2023-07-13T14:47:41;96293.03;;;25.09;46.88
42001;BME280;27689;48.390;10.856;2023-07-13T14:50:30;96291.66;;;25.18;43.85
42001;BME280;27689;48.390;10.856;2023-07-13T14:53:15;96300.16;;;25.26;43.88
42001;BME280;27689;48.390;10.856;2023-07-13T14:55:59;96298.88;;;25.17;42.58
42001;BME280;27689;48.390;10.856;2023-07-13T14:58:43;96299.00;;;25.11;42.09
42001;BME280;27689;48.390;10.856;2023-07-13T15:01:27;96303.22;;;25.07;43.32